sensor_id;sensor_type;location;lat;lon;timestamp;pressure;altitude;pressure_sealevel;temperature;humidity
76694;BME280;65625;52.136;5.424;2023-02-22T00:01:14;101666.63;;;6.58;92.71
76694;BME280;65625;52.136;5.424;2023-02-22T00:03:53;101669.44;;;6.55;93.26
76694;BME280;65625;52.136;5.424;2023-02-22T00:06:21;101663.34;;;6.51;92.99
76694;BME280;65625;52.136;5.424;2023-02-22T00:08:51;101667.88;;;6.51;92.51
76694;BME280;65625;52.136;5.424;2023-02-22T00:11:18;101667.88;;;6.51;93.15
76694;BME280;65625;52.136;5.424;2023-02-22T00:13:46;101669.53;;;6.53;93.24
76694;BME280;65625;52.136;5.424;2023-02-22T00:16:15;101668.63;;;6.53;92.61
76694;BME280;65625;52.136;5.424;2023-02-22T00:18:42;101672.19;;;6.53;92.89
76694;BME280;65625;52.136;5.424;2023-02-22T00:21:10;101662.44;;;6.52;93.05
76694;BME280;65625;52.136;5.424;2023-02-22T00:23:40;101664.09;;;6.55;92.81
76694;BME280;65625;52.136;5.424;2023-02-22T00:26:14;101664.09;;;6.55;93.37
76694;BME280;65625;52.136;5.424;2023-02-22T00:28:52;101664.88;;;6.57;92.83
76694;BME280;65625;52.136;5.424;2023-02-22T00:31:20;101661.34;;;6.56;93.13
76694;BME280;65625;52.136;5.424;2023-02-22T00:33:48;101675.63;;;6.57;93.33
76694;BME280;65625;52.136;5.424;2023-02-22T00:36:15;101666.75;;;6.55;93.16
76694;BME280;65625;52.136;5.424;2023-02-22T00:38:42;101671.28;;;6.54;93.26
76694;BME280;65625;52.136;5.424;2023-02-22T00:41:09;101671.31;;;6.53;93.51
76694;BME280;65625;52.136;5.424;2023-02-22T00:43:37;101666.84;;;6.53;93.53
76694;BME280;65625;52.136;5.424;2023-02-22T00:46:03;101664.31;;;6.50;93.19
76694;BME280;65625;52.136;5.424;2023-02-22T00:48:30;101661.69;;;6.49;92.98
76694;BME280;65625;52.136;5.424;2023-02-22T00:50:56;101656.34;;;6.49;93.53
76694;BME280;65625;52.136;5.424;2023-02-22T00:53:24;101657.31;;;6.46;92.98
76694;BME280;65625;52.136;5.424;2023-02-22T00:55:52;101649.28;;;6.46;92.98
76694;BME280;65625;52.136;5.424;2023-02-22T00:58:19;101649.34;;;6.44;93.00
76694;BME280;65625;52.136;5.424;2023-02-22T01:00:45;101640.38;;;6.46;92.74
76694;BME280;65625;52.136;5.424;2023-02-22T01:03:14;101641.31;;;6.44;93.21
76694;BME280;65625;52.136;5.424;2023-02-22T01:05:41;101648.56;;;6.43;93.24
76694;BME280;65625;52.136;5.424;2023-02-22T01:08:10;101630.72;;;6.41;93.19
76694;BME280;65625;52.136;5.424;2023-02-22T01:10:37;101628.94;;;6.42;93.45
76694;BME280;65625;52.136;5.424;2023-02-22T01:13:05;101629.00;;;6.40;93.11
76694;BME280;65625;52.136;5.424;2023-02-22T01:15:37;101633.56;;;6.38;92.71
76694;BME280;65625;52.136;5.424;2023-02-22T01:18:04;101630.00;;;6.38;93.11
76694;BME280;65625;52.136;5.424;2023-02-22T01:20:31;101636.25;;;6.38;93.88
76694;BME280;65625;52.136;5.424;2023-02-22T01:23:00;101631.88;;;6.36;92.89
76694;BME280;65625;52.136;5.424;2023-02-22T01:25:30;101628.34;;;6.35;93.31
76694;BME280;65625;52.136;5.424;2023-02-22T01:27:57;101621.28;;;6.33;92.94
76694;BME280;65625;52.136;5.424;2023-02-22T01:30:28;101617.69;;;6.34;93.59
76694;BME280;65625;52.136;5.424;2023-02-22T01:32:55;101621.28;;;6.33;93.80
76694;BME280;65625;52.136;5.424;2023-02-22T01:35:30;101624.03;;;6.31;93.68
76694;BME280;65625;52.136;5.424;2023-02-22T01:37:58;101623.13;;;6.32;93.57
76694;BME280;65625;52.136;5.424;2023-02-22T01:40:37;101616.00;;;6.31;93.43
76694;BME280;65625;52.136;5.424;2023-02-22T01:43:18;101617.81;;;6.31;93.50
76694;BME280;65625;52.136;5.424;2023-02-22T01:45:49;101604.34;;;6.32;93.65
76694;BME280;65625;52.136;5.424;2023-02-22T01:51:14;101607.16;;;6.29;93.69
76694;BME280;65625;52.136;5.424;2023-02-22T01:53:44;101601.78;;;6.29;93.74
76694;BME280;65625;52.136;5.424;2023-02-22T01:56:14;101606.38;;;6.27;93.74
76694;BME280;65625;52.136;5.424;2023-02-22T01:58:44;101601.94;;;6.26;93.98
76694;BME280;65625;52.136;5.424;2023-02-22T02:01:13;101604.69;;;6.25;93.46
76694;BME280;65625;52.136;5.424;2023-02-22T02:03:40;101597.78;;;6.19;93.76
76694;BME280;65625;52.136;5.424;2023-02-22T02:06:11;101598.75;;;6.18;93.31
76694;BME280;65625;52.136;5.424;2023-02-22T02:08:45;101593.38;;;6.18;93.71
76694;BME280;65625;52.136;5.424;2023-02-22T02:11:17;101588.22;;;6.14;93.27
76694;BME280;65625;52.136;5.424;2023-02-22T02:13:45;101597.34;;;6.10;93.54
76694;BME280;65625;52.136;5.424;2023-02-22T02:16:12;101593.00;;;6.07;93.03
76694;BME280;65625;52.136;5.424;2023-02-22T02:18:39;101579.63;;;6.06;93.08
76694;BME280;65625;52.136;5.424;2023-02-22T02:21:43;101586.91;;;6.04;92.86
76694;BME280;65625;52.136;5.424;2023-02-22T02:24:50;101584.41;;;5.99;93.30
76694;BME280;65625;52.136;5.424;2023-02-22T02:38:49;101569.91;;;5.85;93.08
76694;BME280;65625;52.136;5.424;2023-02-22T02:41:30;101560.19;;;5.81;93.02
76694;BME280;65625;52.136;5.424;2023-02-22T02:44:03;101555.81;;;5.80;93.31
76694;BME280;65625;52.136;5.424;2023-02-22T02:46:38;101553.19;;;5.78;93.14
76694;BME280;65625;52.136;5.424;2023-02-22T02:49:12;101553.34;;;5.75;93.30
76694;BME280;65625;52.136;5.424;2023-02-22T02:51:44;101559.59;;;5.74;93.45
76694;BME280;65625;52.136;5.424;2023-02-22T02:54:13;101552.38;;;5.76;92.82
76694;BME280;65625;52.136;5.424;2023-02-22T02:56:41;101547.09;;;5.75;93.65
76694;BME280;65625;52.136;5.424;2023-02-22T02:59:29;101543.81;;;5.68;94.18
76694;BME280;65625;52.136;5.424;2023-02-22T03:02:11;101537.88;;;5.62;93.42
76694;BME280;65625;52.136;5.424;2023-02-22T03:04:54;101540.00;;;5.54;93.02
76694;BME280;65625;52.136;5.424;2023-02-22T03:13:09;101536.44;;;5.33;93.24
76694;BME280;65625;52.136;5.424;2023-02-22T03:18:52;101528.78;;;5.24;93.66
76694;BME280;65625;52.136;5.424;2023-02-22T03:21:31;101529.81;;;5.22;93.29
76694;BME280;65625;52.136;5.424;2023-02-22T03:24:06;101529.06;;;5.18;93.71
76694;BME280;65625;52.136;5.424;2023-02-22T03:26:44;101531.81;;;5.16;93.31
76694;BME280;65625;52.136;5.424;2023-02-22T03:29:13;101527.41;;;5.15;94.04
76694;BME280;65625;52.136;5.424;2023-02-22T03:31:55;101529.94;;;5.18;94.08
76694;BME280;65625;52.136;5.424;2023-02-22T03:34:38;101525.44;;;5.19;93.58
76694;BME280;65625;52.136;5.424;2023-02-22T03:37:16;101526.47;;;5.16;93.69
76694;BME280;65625;52.136;5.424;2023-02-22T03:39:45;101521.03;;;5.18;93.41
76694;BME280;65625;52.136;5.424;2023-02-22T03:42:31;101516.63;;;5.17;93.49
76694;BME280;65625;52.136;5.424;2023-02-22T03:45:03;101511.28;;;5.17;93.84
76694;BME280;65625;52.136;5.424;2023-02-22T03:47:40;101509.59;;;5.14;94.11
76694;BME280;65625;52.136;5.424;2023-02-22T03:52:43;101511.22;;;5.18;94.05
76694;BME280;65625;52.136;5.424;2023-02-22T03:55:16;101512.19;;;5.16;93.86
76694;BME280;65625;52.136;5.424;2023-02-22T03:57:52;101504.38;;;5.11;94.45
76694;BME280;65625;52.136;5.424;2023-02-22T04:02:49;101502.72;;;5.09;94.07
76694;BME280;65625;52.136;5.424;2023-02-22T04:05:18;101495.69;;;5.06;94.68
76694;BME280;65625;52.136;5.424;2023-02-22T04:07:46;101497.38;;;5.09;94.54
76694;BME280;65625;52.136;5.424;2023-02-22T04:10:15;101495.69;;;5.06;94.29
76694;BME280;65625;52.136;5.424;2023-02-22T04:12:42;101499.22;;;5.07;94.40
76694;BME280;65625;52.136;5.424;2023-02-22T04:15:12;101494.00;;;5.04;94.04
76694;BME280;65625;52.136;5.424;2023-02-22T04:17:41;101486.97;;;5.01;94.41
76694;BME280;65625;52.136;5.424;2023-02-22T04:20:11;101491.50;;;4.99;94.41
76694;BME280;65625;52.136;5.424;2023-02-22T04:22:51;101479.16;;;4.97;94.67
76694;BME280;65625;52.136;5.424;2023-02-22T04:25:19;101484.50;;;4.97;94.65
76694;BME280;65625;52.136;5.424;2023-02-22T04:27:46;101477.47;;;4.94;94.67
76694;BME280;65625;52.136;5.424;2023-02-22T04:30:16;101482.88;;;4.93;94.65
76694;BME280;65625;52.136;5.424;2023-02-22T04:32:43;101472.19;;;4.93;94.86
76694;BME280;65625;52.136;5.424;2023-02-22T04:35:11;101467.84;;;4.90;94.94
76694;BME280;65625;52.136;5.424;2023-02-22T04:37:37;101466.97;;;4.90;95.09
76694;BME280;65625;52.136;5.424;2023-02-22T04:40:06;101462.50;;;4.90;95.80
76694;BME280;65625;52.136;5.424;2023-02-22T04:42:34;101463.34;;;4.91;95.18
76694;BME280;65625;52.136;5.424;2023-02-22T04:45:07;101455.31;;;4.91;95.58
76694;BME280;65625;52.136;5.424;2023-02-22T04:47:35;101458.66;;;4.96;95.05
76694;BME280;65625;52.136;5.424;2023-02-22T04:50:04;101455.31;;;4.91;94.99
76694;BME280;65625;52.136;5.424;2023-02-22T04:52:31;101452.72;;;4.89;95.92
76694;BME280;65625;52.136;5.424;2023-02-22T04:54:58;101449.19;;;4.89;95.16
76694;BME280;65625;52.136;5.424;2023-02-22T04:57:25;101436.81;;;4.86;95.50
76694;BME280;65625;52.136;5.424;2023-02-22T04:59:52;101443.19;;;4.82;95.95
76694;BME280;65625;52.136;5.424;2023-02-22T05:02:21;101433.25;;;4.86;95.67
76694;BME280;65625;52.136;5.424;2023-02-22T05:04:48;101430.50;;;4.87;95.27
76694;BME280;65625;52.136;5.424;2023-02-22T05:07:16;101438.50;;;4.89;95.51
76694;BME280;65625;52.136;5.424;2023-02-22T05:09:42;101430.41;;;4.90;95.15
76694;BME280;65625;52.136;5.424;2023-02-22T05:12:09;101424.31;;;4.87;96.08
76694;BME280;65625;52.136;5.424;2023-02-22T05:14:35;101426.16;;;4.85;95.52
76694;BME280;65625;52.136;5.424;2023-02-22T05:17:02;101425.16;;;4.87;95.48
76694;BME280;65625;52.136;5.424;2023-02-22T05:19:29;101421.69;;;4.85;95.54
76694;BME280;65625;52.136;5.424;2023-02-22T05:21:56;101414.47;;;4.87;96.34
76694;BME280;65625;52.136;5.424;2023-02-22T05:24:23;101423.50;;;4.85;96.08
76694;BME280;65625;52.136;5.424;2023-02-22T05:26:49;101423.69;;;4.80;96.00
76694;BME280;65625;52.136;5.424;2023-02-22T05:29:19;101417.59;;;4.77;96.30
76694;BME280;65625;52.136;5.424;2023-02-22T05:31:46;101425.63;;;4.77;95.74
76694;BME280;65625;52.136;5.424;2023-02-22T05:34:14;101414.94;;;4.77;95.99
76694;BME280;65625;52.136;5.424;2023-02-22T05:36:41;101410.50;;;4.76;96.03
76694;BME280;65625;52.136;5.424;2023-02-22T05:39:07;101415.69;;;4.80;96.22
76694;BME280;65625;52.136;5.424;2023-02-22T05:41:34;101411.06;;;4.84;96.50
76694;BME280;65625;52.136;5.424;2023-02-22T05:44:01;101406.50;;;4.86;96.34
76694;BME280;65625;52.136;5.424;2023-02-22T05:46:28;101408.25;;;4.87;96.10
76694;BME280;65625;52.136;5.424;2023-02-22T05:48:54;101410.00;;;4.88;96.99
76694;BME280;65625;52.136;5.424;2023-02-22T05:51:21;101397.50;;;4.88;96.83
76694;BME280;65625;52.136;5.424;2023-02-22T05:53:48;101407.06;;;4.94;96.68
76694;BME280;65625;52.136;5.424;2023-02-22T05:56:21;101388.34;;;4.94;97.03
76694;BME280;65625;52.136;5.424;2023-02-22T05:58:47;101396.31;;;4.95;96.62
76694;BME280;65625;52.136;5.424;2023-02-22T06:01:14;101392.75;;;4.95;97.26
76694;BME280;65625;52.136;5.424;2023-02-22T06:03:41;101389.06;;;4.97;97.07
76694;BME280;65625;52.136;5.424;2023-02-22T06:06:08;101387.25;;;4.98;97.08
76694;BME280;65625;52.136;5.424;2023-02-22T06:08:36;101384.72;;;4.95;96.34
76694;BME280;65625;52.136;5.424;2023-02-22T06:11:02;101389.19;;;4.94;97.19
76694;BME280;65625;52.136;5.424;2023-02-22T06:13:29;101376.78;;;4.93;97.07
76694;BME280;65625;52.136;5.424;2023-02-22T06:15:55;101376.63;;;4.96;97.23
76694;BME280;65625;52.136;5.424;2023-02-22T06:18:22;101370.41;;;4.96;97.74
76694;BME280;65625;52.136;5.424;2023-02-22T06:20:52;101364.13;;;4.97;97.15
76694;BME280;65625;52.136;5.424;2023-02-22T06:23:18;101369.56;;;4.95;97.02
76694;BME280;65625;52.136;5.424;2023-02-22T06:25:45;101367.94;;;4.91;97.36
76694;BME280;65625;52.136;5.424;2023-02-22T06:28:11;101380.44;;;4.91;97.41
76694;BME280;65625;52.136;5.424;2023-02-22T06:30:39;101380.34;;;4.92;97.01
76694;BME280;65625;52.136;5.424;2023-02-22T06:33:06;101383.91;;;4.93;97.02
76694;BME280;65625;52.136;5.424;2023-02-22T06:35:32;101379.50;;;4.92;97.61
76694;BME280;65625;52.136;5.424;2023-02-22T06:37:59;101383.91;;;4.93;98.23
76694;BME280;65625;52.136;5.424;2023-02-22T06:40:25;101383.00;;;4.94;97.56
76694;BME280;65625;52.136;5.424;2023-02-22T06:42:56;101370.59;;;4.91;98.42
76694;BME280;65625;52.136;5.424;2023-02-22T06:45:24;101384.06;;;4.90;98.21
76694;BME280;65625;52.136;5.424;2023-02-22T06:47:50;101380.44;;;4.91;97.60
76694;BME280;65625;52.136;5.424;2023-02-22T06:50:19;101375.16;;;4.89;98.18
76694;BME280;65625;52.136;5.424;2023-02-22T06:52:46;101356.44;;;4.89;97.93
76694;BME280;65625;52.136;5.424;2023-02-22T06:55:16;101357.38;;;4.88;98.21
76694;BME280;65625;52.136;5.424;2023-02-22T06:57:43;101360.94;;;4.89;97.91
76694;BME280;65625;52.136;5.424;2023-02-22T07:00:10;101361.03;;;4.86;97.64
76694;BME280;65625;52.136;5.424;2023-02-22T07:02:37;101361.91;;;4.86;97.71
76694;BME280;65625;52.136;5.424;2023-02-22T07:05:03;101364.44;;;4.89;98.18
76694;BME280;65625;52.136;5.424;2023-02-22T07:07:30;101361.78;;;4.89;97.72
76694;BME280;65625;52.136;5.424;2023-02-22T07:09:56;101362.59;;;4.91;98.38
76694;BME280;65625;52.136;5.424;2023-02-22T07:12:23;101358.19;;;4.90;98.34
76694;BME280;65625;52.136;5.424;2023-02-22T07:14:53;101359.09;;;4.89;98.42
76694;BME280;65625;52.136;5.424;2023-02-22T07:17:20;101351.00;;;4.91;98.65
76694;BME280;65625;52.136;5.424;2023-02-22T07:19:47;101355.38;;;4.93;98.61
76694;BME280;65625;52.136;5.424;2023-02-22T07:22:13;101366.00;;;4.95;98.29
76694;BME280;65625;52.136;5.424;2023-02-22T07:24:40;101365.19;;;4.93;98.23
76694;BME280;65625;52.136;5.424;2023-02-22T07:27:06;101366.13;;;4.92;98.47
76694;BME280;65625;52.136;5.424;2023-02-22T07:29:33;101373.22;;;4.93;98.17
76694;BME280;65625;52.136;5.424;2023-02-22T07:32:01;101372.22;;;4.95;98.01
76694;BME280;65625;52.136;5.424;2023-02-22T07:34:28;101372.16;;;4.97;98.62
76694;BME280;65625;52.136;5.424;2023-02-22T07:36:55;101375.34;;;5.05;98.55
76694;BME280;65625;52.136;5.424;2023-02-22T07:39:22;101363.59;;;5.09;98.22
76694;BME280;65625;52.136;5.424;2023-02-22T07:41:48;101379.44;;;5.13;97.87
76694;BME280;65625;52.136;5.424;2023-02-22T07:44:22;101369.66;;;5.12;98.37
76694;BME280;65625;52.136;5.424;2023-02-22T07:46:48;101374.31;;;5.09;98.09
76694;BME280;65625;52.136;5.424;2023-02-22T07:49:16;101370.47;;;5.14;97.54
76694;BME280;65625;52.136;5.424;2023-02-22T07:51:43;101375.59;;;5.19;98.32
76694;BME280;65625;52.136;5.424;2023-02-22T07:54:10;101382.84;;;5.17;97.42
76694;BME280;65625;52.136;5.424;2023-02-22T07:56:36;101380.19;;;5.17;97.78
76694;BME280;65625;52.136;5.424;2023-02-22T07:59:09;101374.81;;;5.17;98.18
76694;BME280;65625;52.136;5.424;2023-02-22T08:01:35;101385.66;;;5.14;97.43
76694;BME280;65625;52.136;5.424;2023-02-22T08:04:03;101393.56;;;5.17;97.33
76694;BME280;65625;52.136;5.424;2023-02-22T08:06:29;101392.53;;;5.19;97.50
76694;BME280;65625;52.136;5.424;2023-02-22T08:09:03;101381.75;;;5.21;97.20
76694;BME280;65625;52.136;5.424;2023-02-22T08:11:32;101384.25;;;5.26;97.97
76694;BME280;65625;52.136;5.424;2023-02-22T08:13:59;101395.00;;;5.24;98.21
76694;BME280;65625;52.136;5.424;2023-02-22T08:16:25;101385.25;;;5.23;98.10
76694;BME280;65625;52.136;5.424;2023-02-22T08:18:52;101379.66;;;5.28;98.37
76694;BME280;65625;52.136;5.424;2023-02-22T08:21:18;101380.34;;;5.33;98.06
76694;BME280;65625;52.136;5.424;2023-02-22T08:23:50;101379.13;;;5.40;97.75
76694;BME280;65625;52.136;5.424;2023-02-22T08:26:16;101385.28;;;5.42;97.73
76694;BME280;65625;52.136;5.424;2023-02-22T08:28:44;101379.78;;;5.45;97.45
76694;BME280;65625;52.136;5.424;2023-02-22T08:31:10;101379.78;;;5.45;98.07
76694;BME280;65625;52.136;5.424;2023-02-22T08:33:40;101377.91;;;5.47;97.19
76694;BME280;65625;52.136;5.424;2023-02-22T08:36:07;101376.97;;;5.48;96.96
76694;BME280;65625;52.136;5.424;2023-02-22T08:38:34;101367.06;;;5.50;96.71
76694;BME280;65625;52.136;5.424;2023-02-22T08:41:01;101376.84;;;5.51;97.43
76694;BME280;65625;52.136;5.424;2023-02-22T08:43:27;101372.25;;;5.53;97.45
76694;BME280;65625;52.136;5.424;2023-02-22T08:45:54;101375.75;;;5.55;96.94
76694;BME280;65625;52.136;5.424;2023-02-22T08:48:23;101380.97;;;5.58;97.34
76694;BME280;65625;52.136;5.424;2023-02-22T08:50:49;101376.19;;;5.64;96.94
76694;BME280;65625;52.136;5.424;2023-02-22T08:53:16;101374.22;;;5.68;97.48
76694;BME280;65625;52.136;5.424;2023-02-22T08:55:44;101373.38;;;5.67;96.37
76694;BME280;65625;52.136;5.424;2023-02-22T08:58:10;101368.81;;;5.69;97.35
76694;BME280;65625;52.136;5.424;2023-02-22T09:00:38;101359.63;;;5.75;96.50
76694;BME280;65625;52.136;5.424;2023-02-22T09:03:08;101360.00;;;5.86;96.27
76694;BME280;65625;52.136;5.424;2023-02-22T09:05:35;101354.38;;;5.92;96.38
76694;BME280;65625;52.136;5.424;2023-02-22T09:08:02;101348.84;;;5.95;95.73
76694;BME280;65625;52.136;5.424;2023-02-22T09:10:31;101344.22;;;5.98;96.01
76694;BME280;65625;52.136;5.424;2023-02-22T09:12:58;101348.13;;;6.10;96.32
76694;BME280;65625;52.136;5.424;2023-02-22T09:15:27;101342.97;;;6.24;95.84
76694;BME280;65625;52.136;5.424;2023-02-22T09:17:53;101347.00;;;6.32;95.49
76694;BME280;65625;52.136;5.424;2023-02-22T09:20:22;101340.44;;;6.38;94.65
76694;BME280;65625;52.136;5.424;2023-02-22T09:22:49;101340.38;;;6.39;94.60
76694;BME280;65625;52.136;5.424;2023-02-22T09:25:16;101339.75;;;6.52;94.40
76694;BME280;65625;52.136;5.424;2023-02-22T09:27:51;101342.91;;;6.60;94.31
76694;BME280;65625;52.136;5.424;2023-02-22T09:30:24;101349.06;;;6.62;94.74
76694;BME280;65625;52.136;5.424;2023-02-22T09:32:54;101349.06;;;6.62;93.82
76694;BME280;65625;52.136;5.424;2023-02-22T09:35:22;101344.25;;;6.68;94.09
76694;BME280;65625;52.136;5.424;2023-02-22T09:37:56;101344.09;;;6.71;93.82
76694;BME280;65625;52.136;5.424;2023-02-22T09:40:25;101340.31;;;6.75;93.74
76694;BME280;65625;52.136;5.424;2023-02-22T09:43:12;101339.06;;;6.82;93.27
76694;BME280;65625;52.136;5.424;2023-02-22T09:48:10;101329.66;;;6.91;93.39
76694;BME280;65625;52.136;5.424;2023-02-22T09:50:50;101323.97;;;6.97;93.14
76694;BME280;65625;52.136;5.424;2023-02-22T09:53:26;101318.59;;;7.29;92.46
76694;BME280;65625;52.136;5.424;2023-02-22T09:56:03;101307.34;;;7.71;90.61
76694;BME280;65625;52.136;5.424;2023-02-22T09:58:35;101300.84;;;7.91;90.00
76694;BME280;65625;52.136;5.424;2023-02-22T10:06:21;101301.91;;;8.63;87.56
76694;BME280;65625;52.136;5.424;2023-02-22T10:08:49;101289.41;;;8.91;85.48
76694;BME280;65625;52.136;5.424;2023-02-22T10:11:38;101277.50;;;9.38;84.91
76694;BME280;65625;52.136;5.424;2023-02-22T10:14:32;101276.50;;;9.67;84.45
76694;BME280;65625;52.136;5.424;2023-02-22T10:17:20;101269.72;;;9.19;84.43
76694;BME280;65625;52.136;5.424;2023-02-22T10:25:23;101273.69;;;9.68;82.48
76694;BME280;65625;52.136;5.424;2023-02-22T10:27:56;101282.09;;;10.04;82.21
76694;BME280;65625;52.136;5.424;2023-02-22T10:30:28;101287.09;;;10.37;80.78
76694;BME280;65625;52.136;5.424;2023-02-22T10:35:29;101283.06;;;10.30;78.84
76694;BME280;65625;52.136;5.424;2023-02-22T10:38:05;101274.28;;;10.00;80.18
76694;BME280;65625;52.136;5.424;2023-02-22T10:40:37;101278.25;;;9.68;80.66
76694;BME280;65625;52.136;5.424;2023-02-22T10:43:07;101271.41;;;9.48;82.27
76694;BME280;65625;52.136;5.424;2023-02-22T10:45:36;101277.50;;;9.38;82.40
76694;BME280;65625;52.136;5.424;2023-02-22T10:48:06;101276.84;;;9.34;82.92
76694;BME280;65625;52.136;5.424;2023-02-22T10:50:37;101280.56;;;9.32;82.58
76694;BME280;65625;52.136;5.424;2023-02-22T10:53:07;101282.13;;;9.22;82.93
76694;BME280;65625;52.136;5.424;2023-02-22T10:55:34;101283.97;;;9.21;82.58
76694;BME280;65625;52.136;5.424;2023-02-22T10:58:03;101282.41;;;9.17;82.96
76694;BME280;65625;52.136;5.424;2023-02-22T11:00:34;101273.94;;;9.23;83.38
76694;BME280;65625;52.136;5.424;2023-02-22T11:05:40;101271.66;;;9.31;82.59
76694;BME280;65625;52.136;5.424;2023-02-22T11:10:50;101259.53;;;9.24;82.43
76694;BME280;65625;52.136;5.424;2023-02-22T11:13:24;101265.28;;;9.32;83.22
76694;BME280;65625;52.136;5.424;2023-02-22T11:15:57;101260.38;;;9.39;82.38
76694;BME280;65625;52.136;5.424;2023-02-22T11:18:29;101265.28;;;9.32;82.27
76694;BME280;65625;52.136;5.424;2023-02-22T11:21:00;101264.13;;;9.22;83.42
76694;BME280;65625;52.136;5.424;2023-02-22T11:23:28;101260.38;;;9.11;83.61
76694;BME280;65625;52.136;5.424;2023-02-22T11:26:21;101252.59;;;9.06;84.32
76694;BME280;65625;52.136;5.424;2023-02-22T11:28:51;101269.03;;;9.02;84.48
76694;BME280;65625;52.136;5.424;2023-02-22T11:31:26;101257.03;;;9.07;84.90
76694;BME280;65625;52.136;5.424;2023-02-22T11:33:55;101261.06;;;9.14;84.82
76694;BME280;65625;52.136;5.424;2023-02-22T11:39:04;101256.53;;;9.29;83.91
76694;BME280;65625;52.136;5.424;2023-02-22T11:41:32;101251.72;;;9.34;84.67
76694;BME280;65625;52.136;5.424;2023-02-22T11:44:21;101248.72;;;9.38;83.96
76694;BME280;65625;52.136;5.424;2023-02-22T11:46:49;101249.13;;;9.46;83.84
76694;BME280;65625;52.136;5.424;2023-02-22T11:49:17;101242.09;;;9.44;82.60
76694;BME280;65625;52.136;5.424;2023-02-22T11:54:53;101237.16;;;9.50;81.53
76694;BME280;65625;52.136;5.424;2023-02-22T11:57:39;101225.44;;;9.37;81.87
76694;BME280;65625;52.136;5.424;2023-02-22T12:00:30;101228.16;;;9.37;82.33
76694;BME280;65625;52.136;5.424;2023-02-22T12:06:13;101218.34;;;9.08;83.06
76694;BME280;65625;52.136;5.424;2023-02-22T12:11:34;101219.88;;;8.98;84.00
76694;BME280;65625;52.136;5.424;2023-02-22T12:14:22;101221.16;;;8.92;84.05
76694;BME280;65625;52.136;5.424;2023-02-22T12:17:06;101219.31;;;8.93;84.45
76694;BME280;65625;52.136;5.424;2023-02-22T12:20:17;101219.88;;;8.98;84.90
76694;BME280;65625;52.136;5.424;2023-02-22T12:23:11;101229.00;;;9.10;85.64
76694;BME280;65625;52.136;5.424;2023-02-22T12:28:37;101214.69;;;9.23;84.81
76694;BME280;65625;52.136;5.424;2023-02-22T12:31:19;101225.28;;;9.26;85.32
76694;BME280;65625;52.136;5.424;2023-02-22T12:34:06;101220.53;;;9.30;85.19
76694;BME280;65625;52.136;5.424;2023-02-22T12:36:39;101219.41;;;9.34;84.84
76694;BME280;65625;52.136;5.424;2023-02-22T12:41:55;101204.38;;;9.44;84.94
76694;BME280;65625;52.136;5.424;2023-02-22T12:44:30;101205.41;;;9.55;84.06
76694;BME280;65625;52.136;5.424;2023-02-22T12:46:58;101205.84;;;9.62;83.82
76694;BME280;65625;52.136;5.424;2023-02-22T12:55:00;101198.44;;;9.92;83.02
76694;BME280;65625;52.136;5.424;2023-02-22T13:00:27;101199.94;;;10.10;82.82
76694;BME280;65625;52.136;5.424;2023-02-22T13:03:25;101195.63;;;10.20;82.22
76694;BME280;65625;52.136;5.424;2023-02-22T13:19:54;101198.50;;;10.04;82.00
76694;BME280;65625;52.136;5.424;2023-02-22T13:22:40;101203.00;;;10.04;81.99
76694;BME280;65625;52.136;5.424;2023-02-22T13:25:19;101192.56;;;9.99;81.60
76694;BME280;65625;52.136;5.424;2023-02-22T13:30:42;101193.50;;;9.98;81.99
76694;BME280;65625;52.136;5.424;2023-02-22T13:44:30;101189.31;;;10.07;82.17
76694;BME280;65625;52.136;5.424;2023-02-22T13:47:25;101191.09;;;10.08;81.80
76694;BME280;65625;52.136;5.424;2023-02-22T13:52:54;101183.25;;;10.03;82.44
76694;BME280;65625;52.136;5.424;2023-02-22T13:55:25;101191.69;;;9.99;82.36
76694;BME280;65625;52.136;5.424;2023-02-22T13:58:01;101195.06;;;9.88;82.48
76694;BME280;65625;52.136;5.424;2023-02-22T14:00:39;101189.22;;;9.82;82.75
76694;BME280;65625;52.136;5.424;2023-02-22T14:13:09;101197.09;;;9.85;82.48
76694;BME280;65625;52.136;5.424;2023-02-22T14:18:29;101199.06;;;9.83;82.43
76694;BME280;65625;52.136;5.424;2023-02-22T14:21:19;101202.59;;;9.83;82.59
76694;BME280;65625;52.136;5.424;2023-02-22T14:23:47;101208.31;;;9.79;83.16
76694;BME280;65625;52.136;5.424;2023-02-22T14:26:27;101204.97;;;9.75;82.43
76694;BME280;65625;52.136;5.424;2023-02-22T14:31:32;101204.50;;;9.69;83.17
76694;BME280;65625;52.136;5.424;2023-02-22T14:34:11;101212.38;;;9.72;82.93
76694;BME280;65625;52.136;5.424;2023-02-22T14:36:55;101209.69;;;9.72;83.00
76694;BME280;65625;52.136;5.424;2023-02-22T14:42:04;101219.50;;;9.73;83.01
76694;BME280;65625;52.136;5.424;2023-02-22T14:44:36;101209.94;;;9.81;82.37
76694;BME280;65625;52.136;5.424;2023-02-22T14:47:06;101216.75;;;9.87;82.94
76694;BME280;65625;52.136;5.424;2023-02-22T14:49:42;101215.84;;;10.00;82.73
76694;BME280;65625;52.136;5.424;2023-02-22T14:52:17;101204.50;;;9.95;82.42
76694;BME280;65625;52.136;5.424;2023-02-22T14:57:31;101211.81;;;9.93;82.31
76694;BME280;65625;52.136;5.424;2023-02-22T15:00:12;101207.19;;;9.95;82.56
76694;BME280;65625;52.136;5.424;2023-02-22T15:02:46;101208.91;;;9.96;82.27
76694;BME280;65625;52.136;5.424;2023-02-22T15:05:15;101210.75;;;9.96;82.79
76694;BME280;65625;52.136;5.424;2023-02-22T15:08:00;101205.03;;;9.88;82.75
76694;BME280;65625;52.136;5.424;2023-02-22T15:10:30;101206.38;;;9.81;82.79
76694;BME280;65625;52.136;5.424;2023-02-22T15:15:37;101198.69;;;9.75;83.13
76694;BME280;65625;52.136;5.424;2023-02-22T15:18:11;101204.19;;;9.73;83.67
76694;BME280;65625;52.136;5.424;2023-02-22T15:20:40;101205.38;;;9.69;83.49
76694;BME280;65625;52.136;5.424;2023-02-22T15:23:06;101199.31;;;9.66;83.98
76694;BME280;65625;52.136;5.424;2023-02-22T15:25:33;101198.34;;;9.67;84.58
76694;BME280;65625;52.136;5.424;2023-02-22T15:28:03;101197.56;;;9.65;84.53
76694;BME280;65625;52.136;5.424;2023-02-22T15:30:32;101205.75;;;9.63;84.35